Time;durP1;ratioP1;P1;durP2;ratioP2;P2;SDS_P1;SDS_P2;PMS_P1;PMS_P2;Temp;Humidity;BMP_temperature;BMP_pressure;BME280_temperature;BME280_humidity;BME280_pressure;Samples;Min_cycle;Max_cycle;Signal;HPM_P1;HPM_P2
2023/03/07 00:02:25;;;;;;;27.30;14.95;;;4.80;99.90;;;;;;4668478;30;20233;-75
2023/03/07 00:04:51;;;;;;;22.80;13.13;;;4.80;99.90;;;;;;4636635;30;20562;-74
2023/03/07 00:07:16;;;;;;;23.30;13.85;;;4.80;99.90;;;;;;4668171;30;20201;-73
2023/03/07 00:09:42;;;;;;;23.95;13.77;;;4.90;99.90;;;;;;4665026;30;20193;-73
2023/03/07 00:12:09;;;;;;;22.63;12.82;;;4.90;99.90;;;;;;4666210;30;20262;-73
2023/03/07 00:14:35;;;;;;;21.42;12.93;;;4.90;99.90;;;;;;4664313;30;20213;-73
2023/03/07 00:17:01;;;;;;;22.75;12.18;;;4.90;99.90;;;;;;4674006;30;20193;-73
2023/03/07 00:19:27;;;;;;;18.52;10.45;;;4.90;99.90;;;;;;4660019;30;20212;-74
2023/03/07 00:21:52;;;;;;;19.73;11.63;;;4.90;99.90;;;;;;4666406;30;20197;-73
2023/03/07 00:24:18;;;;;;;18.10;10.23;;;4.90;99.90;;;;;;4661830;30;20206;-73
2023/03/07 00:26:44;;;;;;;19.05;9.48;;;4.90;99.90;;;;;;4650051;30;20204;-74
2023/03/07 00:29:10;;;;;;;21.52;9.02;;;4.90;99.90;;;;;;4666112;30;20212;-74
2023/03/07 00:31:36;;;;;;;14.55;7.90;;;4.90;99.90;;;;;;4665738;30;20225;-74
2023/03/07 00:34:03;;;;;;;16.40;7.10;;;4.90;99.90;;;;;;4650043;30;20209;-73
2023/03/07 00:36:29;;;;;;;13.27;6.32;;;4.90;99.90;;;;;;4639905;30;21822;-73
2023/03/07 00:38:55;;;;;;;16.00;5.20;;;4.90;99.90;;;;;;4659544;30;20219;-74
2023/03/07 00:41:23;;;;;;;11.73;5.40;;;4.90;99.90;;;;;;4662318;30;20197;-73
2023/03/07 00:43:49;;;;;;;14.88;4.95;;;4.90;99.90;;;;;;4673729;30;20306;-73
2023/03/07 00:46:17;;;;;;;13.77;4.85;;;4.90;99.90;;;;;;4662677;30;20205;-73
2023/03/07 00:48:43;;;;;;;10.57;4.57;;;4.90;99.90;;;;;;4666608;30;20276;-72
2023/03/07 00:51:12;;;;;;;13.18;4.95;;;4.90;99.90;;;;;;4662897;30;20209;-73
2023/03/07 00:53:39;;;;;;;15.55;4.95;;;4.90;99.90;;;;;;4635031;30;20198;-74
2023/03/07 00:56:14;;;;;;;13.20;4.30;;;4.90;99.90;;;;;;4647290;30;20797;-73
2023/03/07 00:58:41;;;;;;;13.32;4.35;;;4.90;99.90;;;;;;4657590;30;20641;-73
2023/03/07 01:01:08;;;;;;;13.10;3.70;;;5.00;99.90;;;;;;4646554;30;20311;-73
2023/03/07 01:03:35;;;;;;;12.20;4.05;;;4.90;99.90;;;;;;4647098;30;20288;-76
2023/03/07 01:06:05;;;;;;;9.40;3.65;;;4.90;99.90;;;;;;4650834;30;20193;-73
2023/03/07 01:08:32;;;;;;;21.15;4.10;;;4.90;99.90;;;;;;4650021;30;20584;-73
2023/03/07 01:10:59;;;;;;;14.68;3.78;;;4.90;99.90;;;;;;4665457;30;20225;-73
2023/03/07 01:13:25;;;;;;;13.32;3.13;;;4.90;99.90;;;;;;4655779;30;20201;-74
2023/03/07 01:15:51;;;;;;;12.30;3.03;;;5.00;99.90;;;;;;4657452;30;20200;-73
2023/03/07 01:18:18;;;;;;;16.15;3.20;;;5.00;99.90;;;;;;4638802;30;20229;-78
2023/03/07 01:20:44;;;;;;;11.50;2.55;;;5.00;99.90;;;;;;4644064;30;20201;-74
2023/03/07 01:23:09;;;;;;;16.83;2.45;;;5.00;99.90;;;;;;4640002;30;20288;-73
2023/03/07 01:25:40;;;;;;;15.55;2.67;;;5.00;99.90;;;;;;4640532;30;20743;-73
2023/03/07 01:28:08;;;;;;;15.57;2.13;;;5.00;99.90;;;;;;4645279;30;20189;-75
2023/03/07 01:30:34;;;;;;;16.63;1.90;;;5.00;99.90;;;;;;4670149;30;20228;-73
2023/03/07 01:33:01;;;;;;;17.85;2.15;;;5.10;99.90;;;;;;4650039;30;20199;-73
2023/03/07 01:35:28;;;;;;;15.50;1.98;;;5.00;99.90;;;;;;4664934;30;20309;-74
2023/03/07 01:37:56;;;;;;;12.98;2.15;;;5.00;99.90;;;;;;4644834;30;20261;-74
2023/03/07 01:40:23;;;;;;;15.85;2.35;;;5.10;99.90;;;;;;4647685;30;20566;-75
2023/03/07 01:42:52;;;;;;;16.67;2.33;;;5.10;99.90;;;;;;4651035;30;20197;-73
2023/03/07 01:45:34;;;;;;;23.77;2.47;;;5.10;99.90;;;;;;4656500;30;20198;-73
2023/03/07 01:48:00;;;;;;;14.88;2.10;;;5.10;99.90;;;;;;4647126;30;20641;-73
2023/03/07 01:50:26;;;;;;;15.60;2.25;;;5.00;99.90;;;;;;4657610;30;20201;-73
2023/03/07 01:52:55;;;;;;;11.52;2.20;;;5.10;99.90;;;;;;4674098;30;20417;-74
2023/03/07 01:55:29;;;;;;;9.23;1.52;;;5.10;99.90;;;;;;4662053;30;20668;-73
2023/03/07 01:58:04;;;;;;;16.05;2.30;;;5.10;99.90;;;;;;4652263;30;20256;-74
2023/03/07 02:00:30;;;;;;;8.40;1.60;;;5.00;99.90;;;;;;4648523;30;20208;-73
2023/03/07 02:03:16;;;;;;;15.48;1.85;;;5.00;99.90;;;;;;4651142;30;20232;-73
2023/03/07 02:05:50;;;;;;;9.82;1.83;;;5.00;99.90;;;;;;4644650;30;20277;-73
2023/03/07 02:08:19;;;;;;;13.50;1.63;;;5.00;99.90;;;;;;4654302;30;20192;-73
2023/03/07 02:10:44;;;;;;;17.08;2.20;;;5.00;99.90;;;;;;4655872;30;20224;-73
2023/03/07 02:13:10;;;;;;;11.15;1.58;;;5.00;99.90;;;;;;4660985;30;20640;-74
2023/03/07 02:15:37;;;;;;;13.05;1.70;;;4.90;99.90;;;;;;4644137;30;20202;-74
2023/03/07 02:18:04;;;;;;;20.73;2.38;;;4.90;99.90;;;;;;4649888;30;20915;-73
2023/03/07 02:20:46;;;;;;;11.00;1.70;;;4.90;99.90;;;;;;4663326;30;20198;-73
2023/03/07 02:23:25;;;;;;;12.52;1.80;;;4.90;99.90;;;;;;4648398;30;20651;-73
2023/03/07 02:26:11;;;;;;;14.75;2.15;;;4.80;99.90;;;;;;4668816;30;20559;-74
2023/03/07 02:28:38;;;;;;;7.35;1.92;;;4.80;99.90;;;;;;4670815;30;20200;-73
2023/03/07 02:31:06;;;;;;;15.32;1.92;;;4.80;99.90;;;;;;4646924;30;20238;-75
2023/03/07 02:33:35;;;;;;;11.05;2.00;;;4.80;99.90;;;;;;4653796;30;20197;-74
2023/03/07 02:36:09;;;;;;;13.40;1.63;;;4.80;99.90;;;;;;4659317;30;20200;-79
2023/03/07 02:38:40;;;;;;;13.93;2.03;;;4.80;99.90;;;;;;4664978;30;20315;-73
2023/03/07 02:41:11;;;;;;;7.43;1.70;;;4.80;99.90;;;;;;4658598;30;20209;-74
2023/03/07 02:43:37;;;;;;;13.38;1.63;;;4.70;99.90;;;;;;4666070;30;20211;-73
2023/03/07 02:46:04;;;;;;;11.65;2.00;;;4.80;99.90;;;;;;4670105;30;20284;-74
2023/03/07 02:48:29;;;;;;;21.90;1.88;;;4.70;99.90;;;;;;4658274;30;20243;-75
2023/03/07 02:50:56;;;;;;;18.30;1.60;;;4.70;99.90;;;;;;4652286;30;20304;-73
2023/03/07 02:53:22;;;;;;;16.05;1.77;;;4.60;99.90;;;;;;4627483;30;20749;-74
2023/03/07 02:55:48;;;;;;;9.88;1.75;;;4.70;99.90;;;;;;4646704;30;20225;-74
2023/03/07 02:58:15;;;;;;;11.15;2.00;;;4.60;99.90;;;;;;4650882;30;20296;-74
2023/03/07 03:00:40;;;;;;;15.73;1.83;;;4.60;99.90;;;;;;4652121;30;20366;-73
2023/03/07 03:03:06;;;;;;;9.88;1.42;;;4.60;99.90;;;;;;4664706;30;20714;-74
2023/03/07 03:05:32;;;;;;;15.93;2.10;;;4.60;99.90;;;;;;4651819;30;20332;-74
2023/03/07 03:07:58;;;;;;;7.78;1.65;;;4.60;99.90;;;;;;4653862;30;20201;-74
2023/03/07 03:10:24;;;;;;;18.15;2.00;;;4.60;99.90;;;;;;4667183;30;20228;-74
2023/03/07 03:12:49;;;;;;;9.70;1.58;;;4.60;99.90;;;;;;4666601;30;20193;-75
2023/03/07 03:15:16;;;;;;;12.77;1.70;;;4.60;99.90;;;;;;4644529;30;20698;-74
2023/03/07 03:17:42;;;;;;;14.32;1.67;;;4.50;99.90;;;;;;4643430;30;20276;-74
2023/03/07 03:20:10;;;;;;;10.10;1.20;;;4.50;99.90;;;;;;4656840;30;20201;-74
2023/03/07 03:22:40;;;;;;;10.63;1.75;;;4.50;99.90;;;;;;4658017;30;20666;-74
2023/03/07 03:25:09;;;;;;;16.13;1.73;;;4.50;99.90;;;;;;4639430;30;20242;-74
2023/03/07 03:27:37;;;;;;;13.15;1.33;;;4.50;99.90;;;;;;4650989;30;20197;-74
2023/03/07 03:30:05;;;;;;;13.13;1.67;;;4.50;99.90;;;;;;4662522;30;20189;-74
2023/03/07 03:32:35;;;;;;;11.95;1.42;;;4.50;99.90;;;;;;4664895;30;20372;-74
2023/03/07 03:35:01;;;;;;;9.15;1.45;;;4.50;99.90;;;;;;4658599;30;20648;-73
2023/03/07 03:37:26;;;;;;;12.63;1.40;;;4.50;99.90;;;;;;4657126;30;20201;-75
2023/03/07 03:39:53;;;;;;;11.50;1.33;;;4.50;99.90;;;;;;4651851;30;20565;-73
2023/03/07 03:42:19;;;;;;;10.35;1.80;;;4.50;99.90;;;;;;4665159;30;20204;-78
2023/03/07 03:44:46;;;;;;;14.23;1.48;;;4.40;99.90;;;;;;4639392;30;20196;-74
2023/03/07 03:47:12;;;;;;;7.03;1.48;;;4.40;99.90;;;;;;4661449;30;20204;-74
2023/03/07 03:49:38;;;;;;;8.75;1.38;;;4.40;99.90;;;;;;4654956;30;20198;-74
2023/03/07 03:52:04;;;;;;;8.43;1.20;;;4.40;99.90;;;;;;4637159;30;20684;-73
2023/03/07 03:54:31;;;;;;;9.32;1.52;;;4.40;99.90;;;;;;4639861;30;20210;-76
2023/03/07 03:56:57;;;;;;;6.32;1.42;;;4.40;99.90;;;;;;4656242;30;20197;-76
2023/03/07 03:59:23;;;;;;;10.25;1.67;;;4.40;99.90;;;;;;4668166;30;20504;-76
2023/03/07 04:01:49;;;;;;;6.00;1.20;;;4.40;99.90;;;;;;4646108;30;20664;-73
2023/03/07 04:04:17;;;;;;;8.75;1.52;;;4.40;99.90;;;;;;4653708;30;20637;-73
2023/03/07 04:06:43;;;;;;;9.00;2.28;;;4.30;99.90;;;;;;4651701;30;20205;-74
2023/03/07 04:09:10;;;;;;;13.60;1.50;;;4.30;99.90;;;;;;4656624;30;20622;-74
2023/03/07 04:11:39;;;;;;;14.35;1.80;;;4.30;99.90;;;;;;4650482;30;20312;-75
2023/03/07 04:14:05;;;;;;;12.30;1.73;;;4.30;99.90;;;;;;4624341;30;20288;-76
2023/03/07 04:16:31;;;;;;;11.43;1.45;;;4.30;99.90;;;;;;4645959;30;20201;-74
2023/03/07 04:18:58;;;;;;;10.88;1.60;;;4.20;99.90;;;;;;4650148;30;20185;-74
2023/03/07 04:21:24;;;;;;;9.07;1.10;;;4.20;99.90;;;;;;4664366;30;20207;-74
2023/03/07 04:23:55;;;;;;;11.35;1.75;;;4.20;99.90;;;;;;4655532;30;20223;-74
2023/03/07 04:26:24;;;;;;;12.77;1.55;;;4.20;99.90;;;;;;4650512;30;20551;-74
2023/03/07 04:28:50;;;;;;;17.25;2.00;;;4.20;99.90;;;;;;4650617;30;20623;-74
2023/03/07 04:31:36;;;;;;;14.80;1.55;;;4.20;99.90;;;;;;4650593;30;20331;-75
2023/03/07 04:34:03;;;;;;;19.13;1.90;;;4.10;99.90;;;;;;4660596;30;20336;-75
2023/03/07 04:36:29;;;;;;;11.88;1.48;;;4.20;99.90;;;;;;4664146;30;20197;-75
2023/03/07 04:38:55;;;;;;;11.32;1.70;;;4.20;99.90;;;;;;4648064;30;20197;-73
2023/03/07 04:41:25;;;;;;;7.90;1.30;;;4.10;99.90;;;;;;4641208;30;20215;-74
2023/03/07 04:43:55;;;;;;;17.60;1.95;;;4.20;99.90;;;;;;4649116;30;20190;-75
2023/03/07 04:46:23;;;;;;;10.40;1.50;;;4.10;99.90;;;;;;4650404;30;20267;-73
2023/03/07 04:48:48;;;;;;;8.63;1.60;;;4.10;99.90;;;;;;4656473;30;20258;-76
2023/03/07 04:51:14;;;;;;;10.75;1.75;;;4.10;99.90;;;;;;4663365;30;20229;-74
2023/03/07 04:53:41;;;;;;;16.65;1.67;;;4.10;99.90;;;;;;4636477;30;20684;-74
2023/03/07 04:56:08;;;;;;;9.05;1.40;;;4.10;99.90;;;;;;4666179;30;20213;-74
2023/03/07 04:58:35;;;;;;;14.23;1.80;;;4.10;99.90;;;;;;4655300;30;20204;-74
2023/03/07 05:01:02;;;;;;;8.75;1.38;;;4.10;99.90;;;;;;4646997;30;20655;-78
2023/03/07 05:03:28;;;;;;;13.63;2.00;;;4.10;99.90;;;;;;4644531;30;20190;-75
2023/03/07 05:05:59;;;;;;;9.13;1.50;;;4.10;99.90;;;;;;4638083;30;20284;-74
2023/03/07 05:08:25;;;;;;;14.77;1.88;;;4.10;99.90;;;;;;4655568;30;20654;-74
2023/03/07 05:10:53;;;;;;;11.80;1.48;;;4.10;99.90;;;;;;4655553;30;20232;-74
2023/03/07 05:13:19;;;;;;;8.00;1.58;;;4.10;99.90;;;;;;4648076;30;20229;-74
2023/03/07 05:15:50;;;;;;;9.68;1.50;;;4.20;99.90;;;;;;4667733;30;20201;-74
2023/03/07 05:18:16;;;;;;;12.20;1.80;;;4.20;99.90;;;;;;4655188;30;20219;-75
2023/03/07 05:20:43;;;;;;;8.65;1.40;;;4.20;99.90;;;;;;4657835;30;20909;-75
2023/03/07 05:23:08;;;;;;;11.48;1.67;;;4.20;99.90;;;;;;4653794;30;20788;-75
2023/03/07 05:25:34;;;;;;;11.30;1.85;;;4.20;99.90;;;;;;4644770;30;20201;-75
2023/03/07 05:28:00;;;;;;;8.30;1.42;;;4.20;99.90;;;;;;4657928;30;20198;-75
2023/03/07 05:30:26;;;;;;;14.15;1.92;;;4.20;99.90;;;;;;4658446;30;20328;-75
2023/03/07 05:32:52;;;;;;;11.00;1.88;;;4.20;99.90;;;;;;4640165;30;20279;-77
2023/03/07 05:35:19;;;;;;;8.90;1.63;;;4.20;99.90;;;;;;4631051;30;20225;-75
2023/03/07 05:37:46;;;;;;;12.30;1.50;;;4.20;99.90;;;;;;4650204;30;20189;-74
2023/03/07 05:40:12;;;;;;;13.55;1.50;;;4.20;99.90;;;;;;4659652;30;20288;-73
2023/03/07 05:42:42;;;;;;;10.85;1.52;;;4.20;99.90;;;;;;4626544;30;20216;-74
2023/03/07 05:45:09;;;;;;;8.57;1.38;;;4.20;99.90;;;;;;4653049;30;20675;-76
2023/03/07 05:47:35;;;;;;;11.45;1.40;;;4.20;99.90;;;;;;4663375;30;20198;-74
2023/03/07 05:50:01;;;;;;;5.97;1.50;;;4.20;99.90;;;;;;4658448;30;20185;-76
2023/03/07 05:52:28;;;;;;;8.57;1.65;;;4.10;99.90;;;;;;4627110;30;20243;-73
2023/03/07 05:54:54;;;;;;;8.88;1.50;;;4.10;99.90;;;;;;4637706;30;21205;-73
2023/03/07 05:57:21;;;;;;;10.93;1.70;;;4.10;99.90;;;;;;4644187;30;20262;-75
2023/03/07 05:59:47;;;;;;;5.55;1.33;;;4.10;99.90;;;;;;4656442;30;20205;-73
2023/03/07 06:02:13;;;;;;;8.00;1.73;;;4.10;99.90;;;;;;4652836;30;20240;-73
2023/03/07 06:04:39;;;;;;;11.25;1.48;;;4.10;99.90;;;;;;4646275;30;20206;-74
2023/03/07 06:07:05;;;;;;;10.15;1.40;;;4.10;99.90;;;;;;4669340;30;20198;-74
2023/03/07 06:09:31;;;;;;;7.72;1.50;;;4.10;99.90;;;;;;4653481;30;20197;-74
2023/03/07 06:11:58;;;;;;;4.72;1.63;;;4.10;99.90;;;;;;4638121;30;20325;-72
2023/03/07 06:14:24;;;;;;;7.50;1.30;;;4.10;99.90;;;;;;4669390;30;20621;-74
2023/03/07 06:16:50;;;;;;;8.30;1.30;;;4.10;99.90;;;;;;4661109;30;20225;-75
2023/03/07 06:19:16;;;;;;;7.45;1.30;;;4.10;99.90;;;;;;4631756;30;20198;-72
2023/03/07 06:21:42;;;;;;;11.80;1.33;;;4.10;99.90;;;;;;4652559;30;20193;-73
2023/03/07 06:24:08;;;;;;;10.90;1.40;;;4.10;99.90;;;;;;4637835;30;20202;-74
2023/03/07 06:26:34;;;;;;;8.73;1.60;;;4.10;99.90;;;;;;4647852;30;20713;-73
2023/03/07 06:29:02;;;;;;;9.88;1.30;;;4.10;99.90;;;;;;4662532;30;20552;-74
2023/03/07 06:31:28;;;;;;;5.97;1.08;;;4.10;99.90;;;;;;4642285;30;20229;-74
2023/03/07 06:33:54;;;;;;;10.95;1.27;;;4.10;99.90;;;;;;4657741;30;20683;-73
2023/03/07 06:36:21;;;;;;;7.78;1.20;;;4.10;99.90;;;;;;4663207;30;20205;-76
2023/03/07 06:38:53;;;;;;;7.35;1.80;;;4.10;99.90;;;;;;4639960;30;20225;-73
2023/03/07 06:41:19;;;;;;;7.50;1.92;;;4.10;99.90;;;;;;4650651;30;20292;-73
2023/03/07 06:43:50;;;;;;;12.80;1.77;;;4.10;99.90;;;;;;4658597;30;20199;-74
2023/03/07 06:46:17;;;;;;;12.35;1.27;;;4.10;99.90;;;;;;4670495;30;20277;-73
2023/03/07 06:48:43;;;;;;;11.75;1.48;;;4.10;99.90;;;;;;4674211;30;20244;-73
2023/03/07 06:51:13;;;;;;;10.23;1.20;;;4.10;99.90;;;;;;4637932;30;20699;-76
2023/03/07 06:53:41;;;;;;;8.20;1.10;;;4.20;99.90;;;;;;4658838;30;20267;-73
2023/03/07 06:56:07;;;;;;;12.15;1.77;;;4.10;99.90;;;;;;4650020;30;20205;-74
2023/03/07 06:58:34;;;;;;;11.50;1.83;;;4.10;99.90;;;;;;4627596;30;20221;-72
2023/03/07 07:01:00;;;;;;;10.80;2.00;;;4.20;99.90;;;;;;4650444;30;20205;-72
2023/03/07 07:03:27;;;;;;;5.93;1.52;;;4.20;99.90;;;;;;4657460;30;20211;-73
2023/03/07 07:05:53;;;;;;;8.80;1.60;;;4.20;99.90;;;;;;4667057;30;20213;-74
2023/03/07 07:08:19;;;;;;;5.35;1.25;;;4.20;99.90;;;;;;4654644;30;20291;-73
2023/03/07 07:10:45;;;;;;;5.03;1.30;;;4.20;99.90;;;;;;4647289;30;20268;-73
2023/03/07 07:13:11;;;;;;;6.80;1.20;;;4.20;99.90;;;;;;4661525;30;20221;-75
2023/03/07 07:15:38;;;;;;;6.63;1.50;;;4.20;99.90;;;;;;4643167;30;20213;-74
2023/03/07 07:18:04;;;;;;;11.82;1.63;;;4.20;99.90;;;;;;4631185;30;20292;-73
2023/03/07 07:20:32;;;;;;;12.98;1.55;;;4.20;99.90;;;;;;4651070;30;20225;-73
2023/03/07 07:22:59;;;;;;;13.05;1.50;;;4.20;99.90;;;;;;4650900;30;20285;-73
2023/03/07 07:25:24;;;;;;;4.78;1.20;;;4.30;99.90;;;;;;4652095;30;20309;-73
2023/03/07 07:27:50;;;;;;;6.25;1.42;;;4.30;99.90;;;;;;4664571;30;20861;-76
2023/03/07 07:30:16;;;;;;;7.25;1.30;;;4.30;99.90;;;;;;4651851;30;20236;-73
2023/03/07 07:32:43;;;;;;;6.90;1.42;;;4.30;99.90;;;;;;4651426;30;20711;-74
2023/03/07 07:35:10;;;;;;;5.00;1.38;;;4.30;99.90;;;;;;4663595;30;20655;-74
2023/03/07 07:37:36;;;;;;;5.93;1.02;;;4.30;99.90;;;;;;4650730;30;20255;-74
2023/03/07 07:40:04;;;;;;;3.10;0.93;;;4.30;99.90;;;;;;4657812;30;20204;-74
2023/03/07 07:42:30;;;;;;;6.95;1.00;;;4.30;99.90;;;;;;4659522;30;20209;-74
2023/03/07 07:45:08;;;;;;;6.05;1.10;;;4.30;99.90;;;;;;4651154;30;20197;-74
2023/03/07 07:47:33;;;;;;;3.83;1.15;;;4.30;99.90;;;;;;4664948;30;20224;-73
2023/03/07 07:49:59;;;;;;;6.18;1.10;;;4.30;99.90;;;;;;4636716;30;20596;-74
2023/03/07 07:52:26;;;;;;;5.20;1.20;;;4.30;99.90;;;;;;4647503;30;20678;-74
2023/03/07 07:54:52;;;;;;;5.20;1.10;;;4.30;99.90;;;;;;4664366;30;20288;-74
2023/03/07 07:57:17;;;;;;;2.95;1.30;;;4.30;99.90;;;;;;4653877;30;20212;-73
2023/03/07 07:59:44;;;;;;;9.02;1.40;;;4.30;99.90;;;;;;4653625;30;20212;-79
2023/03/07 08:02:12;;;;;;;7.25;1.50;;;4.30;99.90;;;;;;4624142;30;20238;-76
2023/03/07 08:04:38;;;;;;;10.85;1.55;;;4.30;99.90;;;;;;4657823;30;20644;-73
2023/03/07 08:07:04;;;;;;;7.63;1.38;;;4.30;99.90;;;;;;4681028;30;20197;-74
2023/03/07 08:09:30;;;;;;;7.18;1.25;;;4.30;99.90;;;;;;4663237;30;20201;-73
2023/03/07 08:11:56;;;;;;;6.15;1.40;;;4.30;99.90;;;;;;4664908;30;20682;-76
2023/03/07 08:14:21;;;;;;;8.43;1.58;;;4.30;99.90;;;;;;4661990;30;20201;-75
2023/03/07 08:16:47;;;;;;;8.57;1.70;;;4.30;99.90;;;;;;4647615;30;20225;-75
2023/03/07 08:19:13;;;;;;;9.45;3.10;;;4.40;99.90;;;;;;4623350;30;20726;-74
2023/03/07 08:21:39;;;;;;;9.52;1.60;;;4.40;99.90;;;;;;4663876;30;20565;-75
2023/03/07 08:24:05;;;;;;;7.40;1.80;;;4.40;99.90;;;;;;4678658;30;20654;-80
2023/03/07 08:26:31;;;;;;;11.63;1.60;;;4.50;99.90;;;;;;4635993;30;20226;-74
2023/03/07 08:28:57;;;;;;;11.27;1.60;;;4.50;99.90;;;;;;4672193;30;20286;-75
2023/03/07 08:31:24;;;;;;;4.57;1.50;;;4.50;99.90;;;;;;4652448;30;20651;-74
2023/03/07 08:33:51;;;;;;;10.27;1.80;;;4.50;99.90;;;;;;4678167;30;20207;-74
2023/03/07 08:36:17;;;;;;;13.13;1.73;;;4.60;99.90;;;;;;4669726;30;20197;-75
2023/03/07 08:38:43;;;;;;;7.22;1.90;;;4.60;99.90;;;;;;4649417;30;20671;-77
2023/03/07 08:41:09;;;;;;;4.47;1.40;;;4.60;99.90;;;;;;4649856;30;20597;-75
2023/03/07 08:43:37;;;;;;;5.75;1.25;;;4.60;99.90;;;;;;4670629;30;20203;-75
2023/03/07 08:46:03;;;;;;;8.82;1.40;;;4.60;99.90;;;;;;4672109;30;20209;-75
2023/03/07 08:48:29;;;;;;;4.03;1.02;;;4.50;99.90;;;;;;4664397;30;20252;-76
2023/03/07 08:50:55;;;;;;;5.03;1.27;;;4.40;99.90;;;;;;4666487;30;20237;-75
2023/03/07 08:53:21;;;;;;;8.57;1.58;;;4.40;99.90;;;;;;4644097;30;20208;-76
2023/03/07 08:55:47;;;;;;;7.80;1.17;;;4.40;99.90;;;;;;4664558;30;20260;-75
2023/03/07 08:58:13;;;;;;;6.95;1.30;;;4.40;99.90;;;;;;4668091;30;20197;-78
2023/03/07 09:00:39;;;;;;;15.75;2.10;;;4.40;99.90;;;;;;4665819;30;20208;-75
2023/03/07 09:03:06;;;;;;;24.23;9.38;;;4.50;99.90;;;;;;4661158;30;20243;-75
2023/03/07 09:05:35;;;;;;;12.18;1.90;;;4.50;99.90;;;;;;4658505;30;20205;-75
2023/03/07 09:08:00;;;;;;;8.13;2.25;;;4.50;99.90;;;;;;4666710;30;20267;-74
2023/03/07 09:10:27;;;;;;;6.40;1.60;;;4.60;99.90;;;;;;4665613;30;20230;-73
2023/03/07 09:12:54;;;;;;;7.95;1.73;;;4.60;99.90;;;;;;4677311;30;20200;-74
2023/03/07 09:15:21;;;;;;;8.20;1.48;;;4.60;99.90;;;;;;4676127;30;20232;-74
2023/03/07 09:17:47;;;;;;;7.03;1.52;;;4.60;99.90;;;;;;4675090;30;20668;-77
2023/03/07 09:20:15;;;;;;;8.98;1.50;;;4.60;99.90;;;;;;4671593;30;20207;-78
2023/03/07 09:22:41;;;;;;;4.43;1.50;;;4.60;99.90;;;;;;4663903;30;20473;-75
2023/03/07 09:25:07;;;;;;;7.03;1.50;;;4.60;99.90;;;;;;4669417;30;20606;-75
2023/03/07 09:27:33;;;;;;;9.93;1.70;;;4.60;99.90;;;;;;4662443;30;20201;-74
2023/03/07 09:29:58;;;;;;;9.57;1.38;;;4.60;99.90;;;;;;4656287;30;20209;-75
2023/03/07 09:32:24;;;;;;;5.53;1.42;;;4.60;99.90;;;;;;4631690;30;20225;-79
2023/03/07 09:34:51;;;;;;;7.10;1.70;;;4.70;99.90;;;;;;4670446;30;20198;-75
2023/03/07 09:37:17;;;;;;;8.93;1.70;;;4.60;99.90;;;;;;4663330;30;20232;-74
2023/03/07 09:39:43;;;;;;;7.85;1.95;;;4.70;99.90;;;;;;4661369;30;20674;-74
2023/03/07 09:42:28;;;;;;;6.60;1.60;;;4.70;99.90;;;;;;4662059;30;20580;-73
2023/03/07 09:45:12;;;;;;;7.40;1.48;;;4.70;99.90;;;;;;4647104;30;20228;-76
2023/03/07 09:48:22;;;;;;;5.80;1.60;;;4.70;99.90;;;;;;4663545;30;20603;-73
2023/03/07 09:50:57;;;;;;;13.05;1.55;;;4.70;99.90;;;;;;4638664;30;20209;-74
2023/03/07 09:53:40;;;;;;;10.98;1.50;;;4.60;99.90;;;;;;4666443;30;20204;-75
2023/03/07 09:56:18;;;;;;;4.57;1.38;;;4.70;99.90;;;;;;4663262;30;20202;-73
2023/03/07 09:58:49;;;;;;;9.63;1.65;;;4.70;99.90;;;;;;4672526;30;20199;-75
2023/03/07 10:01:21;;;;;;;7.75;1.40;;;4.70;99.90;;;;;;4661674;30;20201;-74
2023/03/07 10:04:20;;;;;;;9.68;2.05;;;4.70;99.90;;;;;;4663076;30;20201;-79
2023/03/07 10:06:54;;;;;;;14.05;1.55;;;4.80;99.90;;;;;;4644117;30;20217;-74
2023/03/07 10:09:22;;;;;;;11.48;1.50;;;4.90;99.90;;;;;;4659255;30;20342;-74
2023/03/07 10:12:05;;;;;;;9.80;1.90;;;5.00;99.90;;;;;;4662715;30;20233;-74
2023/03/07 10:14:53;;;;;;;9.48;1.58;;;5.20;99.90;;;;;;4672269;30;20287;-73
2023/03/07 10:17:48;;;;;;;6.45;1.42;;;5.40;99.90;;;;;;4662029;30;20208;-82
2023/03/07 10:20:35;;;;;;;5.97;1.10;;;5.70;99.90;;;;;;4629113;30;20209;-75
2023/03/07 10:23:28;;;;;;;8.25;1.90;;;6.00;99.90;;;;;;4657840;30;20280;-74
2023/03/07 10:26:08;;;;;;;15.23;1.80;;;6.20;99.90;;;;;;4632910;30;20194;-75
2023/03/07 10:28:38;;;;;;;7.43;1.52;;;6.40;99.90;;;;;;4665577;30;20200;-77
2023/03/07 10:31:14;;;;;;;6.35;1.48;;;6.60;99.90;;;;;;4650559;30;20319;-76
2023/03/07 10:33:44;;;;;;;11.95;1.73;;;6.60;99.90;;;;;;4656946;30;20237;-75
2023/03/07 10:36:37;;;;;;;9.60;1.40;;;6.60;99.90;;;;;;4673980;30;20204;-75
2023/03/07 10:39:17;;;;;;;9.05;1.40;;;6.60;99.90;;;;;;4670573;30;20542;-75
2023/03/07 10:41:42;;;;;;;7.40;1.88;;;6.50;99.90;;;;;;4670182;30;20750;-74
2023/03/07 10:44:16;;;;;;;11.05;1.65;;;6.50;99.90;;;;;;4666173;30;20198;-74
2023/03/07 10:46:43;;;;;;;8.73;1.90;;;6.40;99.90;;;;;;4665328;30;20193;-74
2023/03/07 10:49:45;;;;;;;6.85;1.55;;;6.40;99.90;;;;;;4650427;30;20616;-74
2023/03/07 10:52:41;;;;;;;10.23;1.60;;;6.50;99.90;;;;;;4612861;31;20308;-75
2023/03/07 10:55:33;;;;;;;5.65;1.70;;;6.70;99.90;;;;;;4674337;30;20265;-75
2023/03/07 10:58:16;;;;;;;8.52;1.90;;;7.10;99.90;;;;;;4681578;30;20188;-74
2023/03/07 11:00:45;;;;;;;6.65;1.77;;;7.40;99.90;;;;;;4676645;30;20236;-74
2023/03/07 11:03:31;;;;;;;7.72;1.80;;;7.70;99.90;;;;;;4655792;30;20241;-76
2023/03/07 11:05:59;;;;;;;6.07;1.50;;;7.90;99.90;;;;;;4659734;30;20594;-74
2023/03/07 11:08:33;;;;;;;8.57;1.60;;;8.10;99.90;;;;;;4674084;30;20664;-75
2023/03/07 11:11:00;;;;;;;6.25;1.75;;;8.20;99.90;;;;;;4674071;30;20220;-75
2023/03/07 11:13:27;;;;;;;9.13;1.83;;;8.30;99.90;;;;;;4681843;30;20200;-75
2023/03/07 11:16:17;;;;;;;8.50;1.83;;;8.40;99.90;;;;;;4677691;30;20682;-74
2023/03/07 11:18:44;;;;;;;11.32;1.88;;;8.50;99.90;;;;;;4665985;30;20292;-74
2023/03/07 11:21:33;;;;;;;7.75;1.80;;;8.70;99.90;;;;;;4658805;30;20205;-76
2023/03/07 11:24:29;;;;;;;11.35;1.98;;;8.90;99.90;;;;;;4650901;30;20569;-74
2023/03/07 11:26:57;;;;;;;5.28;1.85;;;9.20;99.90;;;;;;4681721;30;20279;-76
2023/03/07 11:29:33;;;;;;;9.93;2.13;;;9.50;99.90;;;;;;4679106;30;20192;-76
2023/03/07 11:32:13;;;;;;;10.75;1.98;;;9.70;99.90;;;;;;4682535;30;20290;-74
2023/03/07 11:35:05;;;;;;;7.20;1.90;;;9.70;99.90;;;;;;4682042;30;20199;-76
2023/03/07 11:37:42;;;;;;;5.63;1.48;;;9.30;99.90;;;;;;4681197;30;20196;-73
2023/03/07 11:40:27;;;;;;;8.70;1.70;;;8.80;99.90;;;;;;4664262;30;20266;-75
2023/03/07 11:43:13;;;;;;;10.02;1.67;;;8.30;99.90;;;;;;4664513;30;20197;-75
2023/03/07 11:45:42;;;;;;;8.00;1.77;;;8.00;99.90;;;;;;4665840;30;20259;-74
2023/03/07 11:48:22;;;;;;;5.15;1.33;;;7.70;99.90;;;;;;4665160;30;20205;-78
2023/03/07 11:50:53;;;;;;;8.13;2.00;;;7.50;99.90;;;;;;4662235;30;20632;-74
2023/03/07 11:53:37;;;;;;;6.95;1.33;;;7.30;99.90;;;;;;4669239;30;20208;-75
2023/03/07 11:56:32;;;;;;;10.50;1.55;;;7.10;99.90;;;;;;4650537;30;20206;-75
2023/03/07 11:59:20;;;;;;;6.80;1.40;;;7.00;99.90;;;;;;4663480;30;20255;-77
2023/03/07 12:01:55;;;;;;;11.63;1.63;;;6.90;99.90;;;;;;4663920;30;20232;-76
2023/03/07 12:04:42;;;;;;;6.97;1.88;;;7.00;99.90;;;;;;4671929;30;20259;-74
2023/03/07 12:07:17;;;;;;;6.50;1.50;;;7.10;99.90;;;;;;4671194;30;20582;-74
2023/03/07 12:10:02;;;;;;;6.45;2.00;;;7.30;99.90;;;;;;4649270;30;20544;-75
2023/03/07 12:12:51;;;;;;;7.65;1.80;;;7.60;99.90;;;;;;4663176;30;20228;-75
2023/03/07 12:16:08;;;;;;;6.53;2.08;;;7.80;99.90;;;;;;4658986;30;20194;-77
2023/03/07 12:18:58;;;;;;;13.55;2.05;;;8.20;99.90;;;;;;4649095;30;20737;-75
2023/03/07 12:21:43;;;;;;;5.68;1.58;;;8.50;99.90;;;;;;4675558;30;20197;-76
2023/03/07 12:24:23;;;;;;;9.60;2.08;;;8.70;99.90;;;;;;4670774;30;20289;-74
2023/03/07 12:27:13;;;;;;;10.98;1.30;;;8.90;99.90;;;;;;4674770;30;20204;-74
2023/03/07 12:29:53;;;;;;;8.00;1.60;;;9.00;99.90;;;;;;4677845;30;20257;-74
2023/03/07 12:32:26;;;;;;;9.77;1.60;;;9.10;99.90;;;;;;4672197;30;20236;-78
2023/03/07 12:34:57;;;;;;;6.97;1.23;;;9.20;99.90;;;;;;4663498;30;20299;-75
2023/03/07 12:37:36;;;;;;;5.35;1.23;;;9.20;99.90;;;;;;4663935;30;20229;-77
2023/03/07 12:40:24;;;;;;;6.70;1.30;;;9.10;99.90;;;;;;4663613;30;20197;-73
2023/03/07 12:43:00;;;;;;;4.22;1.05;;;9.00;99.90;;;;;;4644825;30;20201;-75
2023/03/07 12:45:32;;;;;;;6.57;1.20;;;9.00;99.90;;;;;;4668224;30;20201;-75
2023/03/07 12:48:17;;;;;;;9.90;1.77;;;8.90;99.90;;;;;;4661477;30;20194;-75
2023/03/07 12:51:05;;;;;;;6.07;1.38;;;9.00;99.90;;;;;;4663757;30;20288;-75
2023/03/07 12:53:54;;;;;;;5.05;1.30;;;9.00;99.90;;;;;;4665305;30;20208;-75
2023/03/07 12:57:00;;;;;;;9.00;1.20;;;9.10;99.90;;;;;;4664517;30;20201;-75
2023/03/07 12:59:28;;;;;;;5.85;1.00;;;9.30;99.90;;;;;;4668809;30;20235;-75
2023/03/07 13:02:11;;;;;;;4.22;1.00;;;9.40;99.90;;;;;;4664753;30;20241;-74
2023/03/07 13:04:39;;;;;;;6.30;1.25;;;9.50;99.90;;;;;;4664960;30;20198;-77
2023/03/07 13:07:32;;;;;;;3.78;1.00;;;9.50;99.90;;;;;;4674200;30;20221;-75
2023/03/07 13:10:02;;;;;;;4.90;1.35;;;9.40;99.50;;;;;;4680964;30;20192;-74
2023/03/07 13:12:37;;;;;;;6.15;0.95;;;9.20;98.70;;;;;;4666658;30;20233;-74